sensor_id;sensor_type;location;lat;lon;timestamp;P1;durP1;ratioP1;P2;durP2;ratioP2
3297;SDS011;1661;53.572;10.174;2023-08-06T00:00:31;4.67;;;2.70;;
3297;SDS011;1661;53.572;10.174;2023-08-06T00:02:58;2.77;;;2.57;;
3297;SDS011;1661;53.572;10.174;2023-08-06T00:05:25;3.23;;;2.60;;
3297;SDS011;1661;53.572;10.174;2023-08-06T00:07:51;2.93;;;2.73;;
3297;SDS011;1661;53.572;10.174;2023-08-06T00:10:18;2.80;;;2.20;;
3297;SDS011;1661;53.572;10.174;2023-08-06T00:12:45;3.00;;;2.80;;
3297;SDS011;1661;53.572;10.174;2023-08-06T00:15:13;2.73;;;2.53;;
3297;SDS011;1661;53.572;10.174;2023-08-06T00:17:41;3.43;;;3.13;;
3297;SDS011;1661;53.572;10.174;2023-08-06T00:20:08;3.73;;;3.30;;
3297;SDS011;1661;53.572;10.174;2023-08-06T00:22:35;3.43;;;3.13;;
3297;SDS011;1661;53.572;10.174;2023-08-06T00:25:03;6.90;;;3.20;;
3297;SDS011;1661;53.572;10.174;2023-08-06T00:27:30;3.13;;;2.70;;
3297;SDS011;1661;53.572;10.174;2023-08-06T00:29:57;3.50;;;3.30;;
3297;SDS011;1661;53.572;10.174;2023-08-06T00:32:24;3.80;;;3.40;;
3297;SDS011;1661;53.572;10.174;2023-08-06T00:34:52;3.83;;;3.33;;
3297;SDS011;1661;53.572;10.174;2023-08-06T00:37:19;4.23;;;3.70;;
3297;SDS011;1661;53.572;10.174;2023-08-06T00:39:46;4.17;;;3.87;;
3297;SDS011;1661;53.572;10.174;2023-08-06T00:42:13;4.67;;;4.37;;
3297;SDS011;1661;53.572;10.174;2023-08-06T00:44:41;5.20;;;4.53;;
3297;SDS011;1661;53.572;10.174;2023-08-06T00:47:07;4.03;;;3.63;;
3297;SDS011;1661;53.572;10.174;2023-08-06T00:49:35;3.97;;;3.67;;
3297;SDS011;1661;53.572;10.174;2023-08-06T00:52:05;4.00;;;3.60;;
3297;SDS011;1661;53.572;10.174;2023-08-06T00:54:33;4.33;;;3.93;;
3297;SDS011;1661;53.572;10.174;2023-08-06T00:57:01;4.90;;;2.90;;
3297;SDS011;1661;53.572;10.174;2023-08-06T00:59:31;4.60;;;4.07;;
3297;SDS011;1661;53.572;10.174;2023-08-06T01:01:58;4.10;;;3.80;;
3297;SDS011;1661;53.572;10.174;2023-08-06T01:04:25;5.73;;;3.47;;
3297;SDS011;1661;53.572;10.174;2023-08-06T01:06:53;5.27;;;3.67;;
3297;SDS011;1661;53.572;10.174;2023-08-06T01:09:31;6.90;;;4.00;;
3297;SDS011;1661;53.572;10.174;2023-08-06T01:12:09;3.93;;;3.63;;
3297;SDS011;1661;53.572;10.174;2023-08-06T01:14:50;3.63;;;3.33;;
3297;SDS011;1661;53.572;10.174;2023-08-06T01:17:24;4.50;;;4.10;;
3297;SDS011;1661;53.572;10.174;2023-08-06T01:19:52;4.60;;;4.23;;
3297;SDS011;1661;53.572;10.174;2023-08-06T01:22:20;6.07;;;4.20;;
3297;SDS011;1661;53.572;10.174;2023-08-06T01:24:49;5.30;;;4.50;;
3297;SDS011;1661;53.572;10.174;2023-08-06T01:27:18;4.27;;;3.97;;
3297;SDS011;1661;53.572;10.174;2023-08-06T01:29:56;4.23;;;3.57;;
3297;SDS011;1661;53.572;10.174;2023-08-06T01:32:28;4.30;;;3.90;;
3297;SDS011;1661;53.572;10.174;2023-08-06T01:34:58;3.87;;;3.57;;
3297;SDS011;1661;53.572;10.174;2023-08-06T01:37:27;4.20;;;3.90;;
3297;SDS011;1661;53.572;10.174;2023-08-06T01:39:55;4.40;;;4.10;;
3297;SDS011;1661;53.572;10.174;2023-08-06T01:42:22;4.27;;;3.97;;
3297;SDS011;1661;53.572;10.174;2023-08-06T01:44:48;4.47;;;4.10;;
3297;SDS011;1661;53.572;10.174;2023-08-06T01:47:15;6.93;;;5.90;;
3297;SDS011;1661;53.572;10.174;2023-08-06T01:49:42;4.83;;;4.43;;
3297;SDS011;1661;53.572;10.174;2023-08-06T01:52:09;4.80;;;4.40;;
3297;SDS011;1661;53.572;10.174;2023-08-06T01:54:37;5.20;;;4.70;;
3297;SDS011;1661;53.572;10.174;2023-08-06T01:57:04;5.50;;;5.10;;
3297;SDS011;1661;53.572;10.174;2023-08-06T01:59:31;5.47;;;4.97;;
3297;SDS011;1661;53.572;10.174;2023-08-06T02:01:58;5.60;;;5.10;;
3297;SDS011;1661;53.572;10.174;2023-08-06T02:04:25;5.17;;;4.77;;
3297;SDS011;1661;53.572;10.174;2023-08-06T02:06:52;4.97;;;4.57;;
3297;SDS011;1661;53.572;10.174;2023-08-06T02:09:19;4.30;;;4.00;;
3297;SDS011;1661;53.572;10.174;2023-08-06T02:11:47;4.57;;;4.20;;
3297;SDS011;1661;53.572;10.174;2023-08-06T02:14:13;9.43;;;5.53;;
3297;SDS011;1661;53.572;10.174;2023-08-06T02:16:40;5.80;;;5.30;;
3297;SDS011;1661;53.572;10.174;2023-08-06T02:19:07;5.30;;;4.80;;
3297;SDS011;1661;53.572;10.174;2023-08-06T02:21:34;6.03;;;5.47;;
3297;SDS011;1661;53.572;10.174;2023-08-06T02:24:01;8.03;;;5.33;;
3297;SDS011;1661;53.572;10.174;2023-08-06T02:26:28;4.90;;;4.50;;
3297;SDS011;1661;53.572;10.174;2023-08-06T02:28:56;5.20;;;4.70;;
3297;SDS011;1661;53.572;10.174;2023-08-06T02:31:23;5.10;;;4.77;;
3297;SDS011;1661;53.572;10.174;2023-08-06T02:33:50;5.10;;;4.67;;
3297;SDS011;1661;53.572;10.174;2023-08-06T02:36:17;4.80;;;4.40;;
3297;SDS011;1661;53.572;10.174;2023-08-06T02:38:43;5.53;;;5.13;;
3297;SDS011;1661;53.572;10.174;2023-08-06T02:41:10;5.90;;;5.30;;
3297;SDS011;1661;53.572;10.174;2023-08-06T02:43:37;8.23;;;5.27;;
3297;SDS011;1661;53.572;10.174;2023-08-06T02:46:05;6.90;;;5.27;;
3297;SDS011;1661;53.572;10.174;2023-08-06T02:48:32;5.40;;;4.90;;
3297;SDS011;1661;53.572;10.174;2023-08-06T02:50:59;4.20;;;3.90;;
3297;SDS011;1661;53.572;10.174;2023-08-06T02:53:26;6.93;;;4.93;;
3297;SDS011;1661;53.572;10.174;2023-08-06T02:55:52;6.07;;;4.80;;
3297;SDS011;1661;53.572;10.174;2023-08-06T02:58:19;4.80;;;4.40;;
3297;SDS011;1661;53.572;10.174;2023-08-06T03:00:58;7.40;;;6.30;;
3297;SDS011;1661;53.572;10.174;2023-08-06T03:03:27;5.83;;;5.00;;
3297;SDS011;1661;53.572;10.174;2023-08-06T03:05:53;5.00;;;4.60;;
3297;SDS011;1661;53.572;10.174;2023-08-06T03:08:20;7.63;;;4.93;;
3297;SDS011;1661;53.572;10.174;2023-08-06T03:10:48;6.33;;;5.83;;
3297;SDS011;1661;53.572;10.174;2023-08-06T03:13:15;5.50;;;4.93;;
3297;SDS011;1661;53.572;10.174;2023-08-06T03:15:41;6.10;;;4.93;;
3297;SDS011;1661;53.572;10.174;2023-08-06T03:18:08;6.03;;;4.60;;
3297;SDS011;1661;53.572;10.174;2023-08-06T03:20:36;5.07;;;4.67;;
3297;SDS011;1661;53.572;10.174;2023-08-06T03:23:03;6.70;;;5.00;;
3297;SDS011;1661;53.572;10.174;2023-08-06T03:25:30;5.73;;;5.23;;
3297;SDS011;1661;53.572;10.174;2023-08-06T03:27:56;4.50;;;4.10;;
3297;SDS011;1661;53.572;10.174;2023-08-06T03:30:23;7.37;;;5.57;;
3297;SDS011;1661;53.572;10.174;2023-08-06T03:32:50;5.00;;;4.50;;
3297;SDS011;1661;53.572;10.174;2023-08-06T03:35:17;8.60;;;5.17;;
3297;SDS011;1661;53.572;10.174;2023-08-06T03:37:45;5.67;;;4.50;;
3297;SDS011;1661;53.572;10.174;2023-08-06T03:40:12;4.90;;;4.40;;
3297;SDS011;1661;53.572;10.174;2023-08-06T03:42:38;4.53;;;4.23;;
3297;SDS011;1661;53.572;10.174;2023-08-06T03:45:06;6.27;;;4.83;;
3297;SDS011;1661;53.572;10.174;2023-08-06T03:47:33;8.17;;;5.30;;
3297;SDS011;1661;53.572;10.174;2023-08-06T03:50:00;5.43;;;5.03;;
3297;SDS011;1661;53.572;10.174;2023-08-06T03:52:27;5.20;;;4.23;;
3297;SDS011;1661;53.572;10.174;2023-08-06T03:54:55;5.67;;;5.03;;
3297;SDS011;1661;53.572;10.174;2023-08-06T03:57:22;8.17;;;5.30;;
3297;SDS011;1661;53.572;10.174;2023-08-06T03:59:49;5.60;;;5.20;;
3297;SDS011;1661;53.572;10.174;2023-08-06T04:02:15;6.20;;;5.70;;
3297;SDS011;1661;53.572;10.174;2023-08-06T04:04:42;5.67;;;5.17;;
3297;SDS011;1661;53.572;10.174;2023-08-06T04:07:09;8.33;;;5.30;;
3297;SDS011;1661;53.572;10.174;2023-08-06T04:09:50;6.10;;;5.13;;
3297;SDS011;1661;53.572;10.174;2023-08-06T04:12:22;8.07;;;5.20;;
3297;SDS011;1661;53.572;10.174;2023-08-06T04:14:50;6.80;;;4.73;;
3297;SDS011;1661;53.572;10.174;2023-08-06T04:17:17;6.10;;;5.53;;
3297;SDS011;1661;53.572;10.174;2023-08-06T04:19:45;6.07;;;5.47;;
3297;SDS011;1661;53.572;10.174;2023-08-06T04:22:13;5.87;;;5.37;;
3297;SDS011;1661;53.572;10.174;2023-08-06T04:24:41;7.67;;;5.00;;
3297;SDS011;1661;53.572;10.174;2023-08-06T04:27:09;6.33;;;5.50;;
3297;SDS011;1661;53.572;10.174;2023-08-06T04:29:36;7.60;;;4.40;;
3297;SDS011;1661;53.572;10.174;2023-08-06T04:32:03;5.87;;;5.37;;
3297;SDS011;1661;53.572;10.174;2023-08-06T04:34:32;9.73;;;5.20;;
3297;SDS011;1661;53.572;10.174;2023-08-06T04:36:58;12.20;;;6.50;;
3297;SDS011;1661;53.572;10.174;2023-08-06T04:39:25;9.20;;;5.60;;
3297;SDS011;1661;53.572;10.174;2023-08-06T04:41:52;11.87;;;7.20;;
3297;SDS011;1661;53.572;10.174;2023-08-06T04:44:21;8.03;;;4.60;;
3297;SDS011;1661;53.572;10.174;2023-08-06T04:46:47;9.10;;;5.30;;
3297;SDS011;1661;53.572;10.174;2023-08-06T04:49:14;8.83;;;5.70;;
3297;SDS011;1661;53.572;10.174;2023-08-06T04:51:41;11.47;;;6.40;;
3297;SDS011;1661;53.572;10.174;2023-08-06T04:54:08;5.37;;;4.97;;
3297;SDS011;1661;53.572;10.174;2023-08-06T04:56:34;10.97;;;6.10;;
3297;SDS011;1661;53.572;10.174;2023-08-06T04:59:01;7.53;;;6.80;;
3297;SDS011;1661;53.572;10.174;2023-08-06T05:01:29;8.17;;;5.60;;
3297;SDS011;1661;53.572;10.174;2023-08-06T05:03:56;7.53;;;5.90;;
3297;SDS011;1661;53.572;10.174;2023-08-06T05:06:23;4.80;;;4.40;;
3297;SDS011;1661;53.572;10.174;2023-08-06T05:08:49;8.60;;;6.80;;
3297;SDS011;1661;53.572;10.174;2023-08-06T05:11:16;12.63;;;6.20;;
3297;SDS011;1661;53.572;10.174;2023-08-06T05:13:43;7.10;;;6.40;;
3297;SDS011;1661;53.572;10.174;2023-08-06T05:16:10;14.73;;;6.87;;
3297;SDS011;1661;53.572;10.174;2023-08-06T05:18:38;8.00;;;5.90;;
3297;SDS011;1661;53.572;10.174;2023-08-06T05:21:06;9.83;;;7.47;;
3297;SDS011;1661;53.572;10.174;2023-08-06T05:23:32;7.53;;;5.63;;
3297;SDS011;1661;53.572;10.174;2023-08-06T05:25:59;6.90;;;6.20;;
3297;SDS011;1661;53.572;10.174;2023-08-06T05:28:26;6.47;;;5.87;;
3297;SDS011;1661;53.572;10.174;2023-08-06T05:30:53;7.70;;;6.87;;
3297;SDS011;1661;53.572;10.174;2023-08-06T05:33:19;10.37;;;6.30;;
3297;SDS011;1661;53.572;10.174;2023-08-06T05:35:48;7.53;;;6.77;;
3297;SDS011;1661;53.572;10.174;2023-08-06T05:38:16;6.37;;;5.67;;
3297;SDS011;1661;53.572;10.174;2023-08-06T05:40:42;7.73;;;6.80;;
3297;SDS011;1661;53.572;10.174;2023-08-06T05:43:09;7.30;;;6.30;;
3297;SDS011;1661;53.572;10.174;2023-08-06T05:45:36;6.60;;;6.00;;
3297;SDS011;1661;53.572;10.174;2023-08-06T05:48:03;10.00;;;6.90;;
3297;SDS011;1661;53.572;10.174;2023-08-06T05:50:30;9.80;;;6.50;;
3297;SDS011;1661;53.572;10.174;2023-08-06T05:52:58;13.23;;;6.67;;
3297;SDS011;1661;53.572;10.174;2023-08-06T05:55:25;7.50;;;6.40;;
3297;SDS011;1661;53.572;10.174;2023-08-06T05:57:51;6.90;;;6.07;;
3297;SDS011;1661;53.572;10.174;2023-08-06T06:00:18;7.50;;;5.83;;
3297;SDS011;1661;53.572;10.174;2023-08-06T06:02:45;6.53;;;5.80;;
3297;SDS011;1661;53.572;10.174;2023-08-06T06:05:12;14.03;;;7.57;;
3297;SDS011;1661;53.572;10.174;2023-08-06T06:07:39;8.40;;;6.90;;
3297;SDS011;1661;53.572;10.174;2023-08-06T06:10:08;8.93;;;7.10;;
3297;SDS011;1661;53.572;10.174;2023-08-06T06:12:35;7.70;;;6.30;;
3297;SDS011;1661;53.572;10.174;2023-08-06T06:15:02;8.07;;;7.27;;
3297;SDS011;1661;53.572;10.174;2023-08-06T06:17:29;9.83;;;6.90;;
3297;SDS011;1661;53.572;10.174;2023-08-06T06:19:56;10.53;;;8.20;;
3297;SDS011;1661;53.572;10.174;2023-08-06T06:22:23;11.00;;;7.77;;
3297;SDS011;1661;53.572;10.174;2023-08-06T06:24:49;9.03;;;5.80;;
3297;SDS011;1661;53.572;10.174;2023-08-06T06:27:17;10.40;;;6.40;;
3297;SDS011;1661;53.572;10.174;2023-08-06T06:29:44;6.43;;;5.83;;
3297;SDS011;1661;53.572;10.174;2023-08-06T06:32:11;8.07;;;6.77;;
3297;SDS011;1661;53.572;10.174;2023-08-06T06:34:38;10.93;;;6.40;;
3297;SDS011;1661;53.572;10.174;2023-08-06T06:37:05;8.00;;;7.20;;
3297;SDS011;1661;53.572;10.174;2023-08-06T06:39:31;9.60;;;6.03;;
3297;SDS011;1661;53.572;10.174;2023-08-06T06:41:59;7.80;;;6.40;;
3297;SDS011;1661;53.572;10.174;2023-08-06T06:44:27;6.37;;;5.73;;
3297;SDS011;1661;53.572;10.174;2023-08-06T06:46:53;8.80;;;6.03;;
3297;SDS011;1661;53.572;10.174;2023-08-06T06:49:20;10.90;;;7.93;;
3297;SDS011;1661;53.572;10.174;2023-08-06T06:51:47;10.03;;;7.17;;
3297;SDS011;1661;53.572;10.174;2023-08-06T06:54:14;10.20;;;5.97;;
3297;SDS011;1661;53.572;10.174;2023-08-06T06:56:41;10.83;;;6.20;;
3297;SDS011;1661;53.572;10.174;2023-08-06T06:59:08;7.60;;;6.87;;
3297;SDS011;1661;53.572;10.174;2023-08-06T07:01:36;9.37;;;6.43;;
3297;SDS011;1661;53.572;10.174;2023-08-06T07:04:03;8.37;;;7.07;;
3297;SDS011;1661;53.572;10.174;2023-08-06T07:06:30;9.57;;;7.10;;
3297;SDS011;1661;53.572;10.174;2023-08-06T07:08:57;10.13;;;7.40;;
3297;SDS011;1661;53.572;10.174;2023-08-06T07:11:23;11.47;;;7.33;;
3297;SDS011;1661;53.572;10.174;2023-08-06T07:13:55;11.10;;;9.20;;
3297;SDS011;1661;53.572;10.174;2023-08-06T07:16:23;12.90;;;6.60;;
3297;SDS011;1661;53.572;10.174;2023-08-06T07:18:53;8.23;;;6.73;;
3297;SDS011;1661;53.572;10.174;2023-08-06T07:21:20;11.03;;;7.07;;
3297;SDS011;1661;53.572;10.174;2023-08-06T07:23:47;10.30;;;8.63;;
3297;SDS011;1661;53.572;10.174;2023-08-06T07:26:15;8.07;;;6.90;;
3297;SDS011;1661;53.572;10.174;2023-08-06T07:28:42;11.50;;;8.03;;
3297;SDS011;1661;53.572;10.174;2023-08-06T07:31:09;12.90;;;8.43;;
3297;SDS011;1661;53.572;10.174;2023-08-06T07:33:36;7.70;;;6.90;;
3297;SDS011;1661;53.572;10.174;2023-08-06T07:36:08;9.90;;;7.27;;
3297;SDS011;1661;53.572;10.174;2023-08-06T07:38:37;10.27;;;7.83;;
3297;SDS011;1661;53.572;10.174;2023-08-06T07:41:03;9.27;;;6.77;;
3297;SDS011;1661;53.572;10.174;2023-08-06T07:43:31;10.10;;;7.20;;
3297;SDS011;1661;53.572;10.174;2023-08-06T07:45:58;8.57;;;7.20;;
3297;SDS011;1661;53.572;10.174;2023-08-06T07:48:25;7.67;;;6.87;;
3297;SDS011;1661;53.572;10.174;2023-08-06T07:50:52;7.27;;;6.57;;
3297;SDS011;1661;53.572;10.174;2023-08-06T07:53:21;11.33;;;8.43;;
3297;SDS011;1661;53.572;10.174;2023-08-06T07:55:49;14.23;;;8.23;;
3297;SDS011;1661;53.572;10.174;2023-08-06T07:58:16;10.17;;;7.57;;
3297;SDS011;1661;53.572;10.174;2023-08-06T08:00:43;7.20;;;6.50;;
3297;SDS011;1661;53.572;10.174;2023-08-06T08:03:10;13.90;;;7.13;;
3297;SDS011;1661;53.572;10.174;2023-08-06T08:05:38;11.50;;;8.70;;
3297;SDS011;1661;53.572;10.174;2023-08-06T08:08:05;13.80;;;7.63;;
3297;SDS011;1661;53.572;10.174;2023-08-06T08:10:33;10.50;;;8.20;;
3297;SDS011;1661;53.572;10.174;2023-08-06T08:13:01;13.90;;;9.10;;
3297;SDS011;1661;53.572;10.174;2023-08-06T08:15:29;15.00;;;10.03;;
3297;SDS011;1661;53.572;10.174;2023-08-06T08:17:56;10.00;;;7.87;;
3297;SDS011;1661;53.572;10.174;2023-08-06T08:20:23;11.23;;;8.77;;
3297;SDS011;1661;53.572;10.174;2023-08-06T08:22:52;10.63;;;9.53;;
3297;SDS011;1661;53.572;10.174;2023-08-06T08:25:19;9.87;;;7.63;;
3297;SDS011;1661;53.572;10.174;2023-08-06T08:27:47;12.03;;;7.60;;
3297;SDS011;1661;53.572;10.174;2023-08-06T08:30:14;9.00;;;7.30;;
3297;SDS011;1661;53.572;10.174;2023-08-06T08:32:41;11.73;;;9.43;;
3297;SDS011;1661;53.572;10.174;2023-08-06T08:35:08;13.63;;;8.53;;
3297;SDS011;1661;53.572;10.174;2023-08-06T08:37:37;8.83;;;7.90;;
3297;SDS011;1661;53.572;10.174;2023-08-06T08:40:04;13.87;;;9.50;;
3297;SDS011;1661;53.572;10.174;2023-08-06T08:42:32;11.23;;;8.43;;
3297;SDS011;1661;53.572;10.174;2023-08-06T08:45:00;9.97;;;8.53;;
3297;SDS011;1661;53.572;10.174;2023-08-06T08:47:28;11.23;;;10.10;;
3297;SDS011;1661;53.572;10.174;2023-08-06T08:49:55;13.60;;;9.10;;
3297;SDS011;1661;53.572;10.174;2023-08-06T08:52:23;14.03;;;8.47;;
3297;SDS011;1661;53.572;10.174;2023-08-06T08:54:51;13.30;;;8.80;;
3297;SDS011;1661;53.572;10.174;2023-08-06T08:57:19;14.17;;;9.20;;
3297;SDS011;1661;53.572;10.174;2023-08-06T08:59:47;10.33;;;8.73;;
3297;SDS011;1661;53.572;10.174;2023-08-06T09:02:15;12.77;;;9.60;;
3297;SDS011;1661;53.572;10.174;2023-08-06T09:04:43;13.33;;;10.07;;
3297;SDS011;1661;53.572;10.174;2023-08-06T09:07:13;10.53;;;8.50;;
3297;SDS011;1661;53.572;10.174;2023-08-06T09:09:44;11.03;;;8.20;;
3297;SDS011;1661;53.572;10.174;2023-08-06T09:12:16;9.53;;;8.40;;
3297;SDS011;1661;53.572;10.174;2023-08-06T09:14:43;10.40;;;8.50;;
3297;SDS011;1661;53.572;10.174;2023-08-06T09:17:10;8.87;;;8.07;;
3297;SDS011;1661;53.572;10.174;2023-08-06T09:19:39;16.00;;;8.90;;
3297;SDS011;1661;53.572;10.174;2023-08-06T09:22:11;10.73;;;9.10;;
3297;SDS011;1661;53.572;10.174;2023-08-06T09:24:38;20.67;;;9.87;;
3297;SDS011;1661;53.572;10.174;2023-08-06T09:27:10;11.70;;;10.70;;
3297;SDS011;1661;53.572;10.174;2023-08-06T09:29:39;13.33;;;9.83;;
3297;SDS011;1661;53.572;10.174;2023-08-06T09:32:07;9.00;;;8.30;;
3297;SDS011;1661;53.572;10.174;2023-08-06T09:34:34;9.57;;;8.83;;
3297;SDS011;1661;53.572;10.174;2023-08-06T09:37:02;13.53;;;8.93;;
3297;SDS011;1661;53.572;10.174;2023-08-06T09:39:30;11.30;;;10.13;;
3297;SDS011;1661;53.572;10.174;2023-08-06T09:41:57;13.77;;;11.43;;
3297;SDS011;1661;53.572;10.174;2023-08-06T09:44:25;16.37;;;11.30;;
3297;SDS011;1661;53.572;10.174;2023-08-06T09:46:53;15.03;;;10.10;;
3297;SDS011;1661;53.572;10.174;2023-08-06T09:49:25;12.27;;;11.07;;
3297;SDS011;1661;53.572;10.174;2023-08-06T09:51:53;10.77;;;9.77;;
3297;SDS011;1661;53.572;10.174;2023-08-06T09:54:24;10.70;;;9.50;;
3297;SDS011;1661;53.572;10.174;2023-08-06T09:57:00;10.37;;;9.57;;
3297;SDS011;1661;53.572;10.174;2023-08-06T09:59:27;12.23;;;11.20;;
3297;SDS011;1661;53.572;10.174;2023-08-06T10:01:55;9.97;;;9.07;;
3297;SDS011;1661;53.572;10.174;2023-08-06T10:04:22;10.73;;;9.73;;
3297;SDS011;1661;53.572;10.174;2023-08-06T10:06:49;12.40;;;9.83;;
3297;SDS011;1661;53.572;10.174;2023-08-06T10:09:17;10.20;;;9.30;;
3297;SDS011;1661;53.572;10.174;2023-08-06T10:11:46;12.30;;;10.93;;
3297;SDS011;1661;53.572;10.174;2023-08-06T10:14:20;10.90;;;8.93;;
3297;SDS011;1661;53.572;10.174;2023-08-06T10:16:50;17.57;;;10.20;;
3297;SDS011;1661;53.572;10.174;2023-08-06T10:19:17;10.10;;;9.27;;
3297;SDS011;1661;53.572;10.174;2023-08-06T10:24:50;9.23;;;8.37;;
3297;SDS011;1661;53.572;10.174;2023-08-06T10:27:21;8.93;;;8.23;;
3297;SDS011;1661;53.572;10.174;2023-08-06T10:29:54;16.63;;;10.13;;
3297;SDS011;1661;53.572;10.174;2023-08-06T10:35:27;9.50;;;8.80;;
3297;SDS011;1661;53.572;10.174;2023-08-06T10:37:57;9.53;;;8.53;;
3297;SDS011;1661;53.572;10.174;2023-08-06T10:40:25;9.97;;;9.17;;
3297;SDS011;1661;53.572;10.174;2023-08-06T10:42:52;10.10;;;9.20;;
3297;SDS011;1661;53.572;10.174;2023-08-06T10:45:20;10.97;;;9.83;;
3297;SDS011;1661;53.572;10.174;2023-08-06T10:47:49;10.10;;;8.57;;
3297;SDS011;1661;53.572;10.174;2023-08-06T10:50:16;10.07;;;9.13;;
3297;SDS011;1661;53.572;10.174;2023-08-06T10:52:43;8.30;;;6.80;;
3297;SDS011;1661;53.572;10.174;2023-08-06T10:55:10;10.30;;;9.40;;
3297;SDS011;1661;53.572;10.174;2023-08-06T10:57:37;11.23;;;10.27;;
3297;SDS011;1661;53.572;10.174;2023-08-06T11:00:04;8.90;;;8.03;;
3297;SDS011;1661;53.572;10.174;2023-08-06T11:02:35;12.83;;;11.37;;
3297;SDS011;1661;53.572;10.174;2023-08-06T11:05:06;14.30;;;10.27;;
3297;SDS011;1661;53.572;10.174;2023-08-06T11:07:33;9.57;;;8.57;;
3297;SDS011;1661;53.572;10.174;2023-08-06T11:10:01;11.73;;;8.70;;
3297;SDS011;1661;53.572;10.174;2023-08-06T11:12:29;9.77;;;8.93;;
3297;SDS011;1661;53.572;10.174;2023-08-06T11:14:56;15.00;;;10.40;;
3297;SDS011;1661;53.572;10.174;2023-08-06T11:17:23;9.53;;;8.73;;
3297;SDS011;1661;53.572;10.174;2023-08-06T11:19:52;12.07;;;10.90;;
3297;SDS011;1661;53.572;10.174;2023-08-06T11:22:20;10.27;;;9.27;;
3297;SDS011;1661;53.572;10.174;2023-08-06T11:24:47;11.70;;;10.57;;
3297;SDS011;1661;53.572;10.174;2023-08-06T11:27:14;10.83;;;9.83;;
3297;SDS011;1661;53.572;10.174;2023-08-06T11:29:41;10.20;;;9.30;;
3297;SDS011;1661;53.572;10.174;2023-08-06T11:32:09;12.10;;;10.53;;
3297;SDS011;1661;53.572;10.174;2023-08-06T11:34:36;10.63;;;9.53;;
3297;SDS011;1661;53.572;10.174;2023-08-06T11:37:05;10.10;;;9.00;;
3297;SDS011;1661;53.572;10.174;2023-08-06T11:39:32;15.23;;;9.93;;
3297;SDS011;1661;53.572;10.174;2023-08-06T11:41:59;11.60;;;10.10;;
3297;SDS011;1661;53.572;10.174;2023-08-06T11:44:29;9.93;;;8.83;;
3297;SDS011;1661;53.572;10.174;2023-08-06T11:46:58;9.37;;;8.50;;
3297;SDS011;1661;53.572;10.174;2023-08-06T11:49:39;11.07;;;9.50;;
3297;SDS011;1661;53.572;10.174;2023-08-06T11:52:12;9.73;;;8.73;;
3297;SDS011;1661;53.572;10.174;2023-08-06T11:54:41;11.53;;;9.17;;
3297;SDS011;1661;53.572;10.174;2023-08-06T11:57:08;11.10;;;10.17;;
3297;SDS011;1661;53.572;10.174;2023-08-06T11:59:36;12.20;;;11.10;;
3297;SDS011;1661;53.572;10.174;2023-08-06T12:02:04;12.33;;;9.17;;
3297;SDS011;1661;53.572;10.174;2023-08-06T12:07:27;16.57;;;10.40;;
3297;SDS011;1661;53.572;10.174;2023-08-06T12:09:56;11.00;;;10.00;;
3297;SDS011;1661;53.572;10.174;2023-08-06T12:12:23;11.43;;;10.30;;
3297;SDS011;1661;53.572;10.174;2023-08-06T12:14:51;11.60;;;10.40;;
3297;SDS011;1661;53.572;10.174;2023-08-06T12:17:17;12.50;;;11.27;;
3297;SDS011;1661;53.572;10.174;2023-08-06T12:19:44;9.53;;;8.60;;
3297;SDS011;1661;53.572;10.174;2023-08-06T12:22:12;16.50;;;10.30;;
3297;SDS011;1661;53.572;10.174;2023-08-06T12:24:41;10.90;;;9.83;;
3297;SDS011;1661;53.572;10.174;2023-08-06T12:27:08;13.20;;;9.27;;
3297;SDS011;1661;53.572;10.174;2023-08-06T12:29:34;10.00;;;9.00;;
3297;SDS011;1661;53.572;10.174;2023-08-06T12:32:01;10.60;;;9.50;;
3297;SDS011;1661;53.572;10.174;2023-08-06T12:34:29;9.87;;;8.90;;
3297;SDS011;1661;53.572;10.174;2023-08-06T12:36:56;15.03;;;8.87;;
3297;SDS011;1661;53.572;10.174;2023-08-06T12:39:22;10.80;;;9.73;;
3297;SDS011;1661;53.572;10.174;2023-08-06T12:41:50;11.30;;;7.90;;
3297;SDS011;1661;53.572;10.174;2023-08-06T12:44:17;12.97;;;9.63;;
3297;SDS011;1661;53.572;10.174;2023-08-06T12:46:44;11.33;;;9.47;;
3297;SDS011;1661;53.572;10.174;2023-08-06T12:49:11;8.80;;;8.00;;
3297;SDS011;1661;53.572;10.174;2023-08-06T12:51:37;10.37;;;8.83;;
3297;SDS011;1661;53.572;10.174;2023-08-06T12:54:04;11.07;;;9.20;;
3297;SDS011;1661;53.572;10.174;2023-08-06T12:56:31;8.93;;;8.13;;
3297;SDS011;1661;53.572;10.174;2023-08-06T12:58:59;14.67;;;9.10;;
3297;SDS011;1661;53.572;10.174;2023-08-06T13:01:26;10.77;;;9.13;;
3297;SDS011;1661;53.572;10.174;2023-08-06T13:03:53;9.67;;;8.70;;
3297;SDS011;1661;53.572;10.174;2023-08-06T13:06:19;11.60;;;8.60;;
3297;SDS011;1661;53.572;10.174;2023-08-06T13:08:46;9.27;;;8.33;;
3297;SDS011;1661;53.572;10.174;2023-08-06T13:11:13;9.37;;;8.13;;
3297;SDS011;1661;53.572;10.174;2023-08-06T13:13:40;9.90;;;8.50;;
3297;SDS011;1661;53.572;10.174;2023-08-06T13:16:08;10.80;;;9.73;;
3297;SDS011;1661;53.572;10.174;2023-08-06T13:18:35;13.50;;;9.70;;
3297;SDS011;1661;53.572;10.174;2023-08-06T13:21:01;8.30;;;7.50;;
3297;SDS011;1661;53.572;10.174;2023-08-06T13:23:28;13.43;;;9.20;;
3297;SDS011;1661;53.572;10.174;2023-08-06T13:25:55;10.57;;;9.40;;
3297;SDS011;1661;53.572;10.174;2023-08-06T13:28:23;9.80;;;8.87;;
3297;SDS011;1661;53.572;10.174;2023-08-06T13:30:50;9.00;;;8.10;;
3297;SDS011;1661;53.572;10.174;2023-08-06T13:33:18;13.03;;;8.90;;
3297;SDS011;1661;53.572;10.174;2023-08-06T13:35:45;9.03;;;8.03;;
3297;SDS011;1661;53.572;10.174;2023-08-06T13:38:12;9.77;;;8.77;;
3297;SDS011;1661;53.572;10.174;2023-08-06T13:40:39;10.00;;;9.07;;
3297;SDS011;1661;53.572;10.174;2023-08-06T13:43:05;10.50;;;9.07;;
3297;SDS011;1661;53.572;10.174;2023-08-06T13:45:33;12.67;;;7.60;;
3297;SDS011;1661;53.572;10.174;2023-08-06T13:48:00;8.33;;;7.50;;
3297;SDS011;1661;53.572;10.174;2023-08-06T13:50:29;11.67;;;9.60;;
3297;SDS011;1661;53.572;10.174;2023-08-06T13:52:55;13.50;;;10.00;;
3297;SDS011;1661;53.572;10.174;2023-08-06T13:55:22;9.60;;;7.40;;
3297;SDS011;1661;53.572;10.174;2023-08-06T13:57:49;10.00;;;8.63;;
3297;SDS011;1661;53.572;10.174;2023-08-06T14:00:16;9.77;;;8.33;;
3297;SDS011;1661;53.572;10.174;2023-08-06T14:02:43;6.87;;;6.27;;
3297;SDS011;1661;53.572;10.174;2023-08-06T14:05:10;7.80;;;6.40;;
3297;SDS011;1661;53.572;10.174;2023-08-06T14:07:38;13.33;;;7.80;;
3297;SDS011;1661;53.572;10.174;2023-08-06T14:10:05;11.33;;;7.20;;
3297;SDS011;1661;53.572;10.174;2023-08-06T14:12:34;7.70;;;6.63;;
3297;SDS011;1661;53.572;10.174;2023-08-06T14:15:01;7.60;;;6.50;;
3297;SDS011;1661;53.572;10.174;2023-08-06T14:17:28;8.10;;;5.10;;
3297;SDS011;1661;53.572;10.174;2023-08-06T14:19:55;5.27;;;4.37;;
3297;SDS011;1661;53.572;10.174;2023-08-06T14:22:22;5.80;;;5.20;;
3297;SDS011;1661;53.572;10.174;2023-08-06T14:24:50;8.77;;;5.17;;
3297;SDS011;1661;53.572;10.174;2023-08-06T14:27:17;4.50;;;4.07;;
3297;SDS011;1661;53.572;10.174;2023-08-06T14:29:44;5.23;;;3.50;;
3297;SDS011;1661;53.572;10.174;2023-08-06T14:32:10;4.23;;;3.90;;
3297;SDS011;1661;53.572;10.174;2023-08-06T14:34:37;4.50;;;4.10;;
3297;SDS011;1661;53.572;10.174;2023-08-06T14:37:04;4.43;;;4.03;;
3297;SDS011;1661;53.572;10.174;2023-08-06T14:39:31;4.50;;;3.73;;
3297;SDS011;1661;53.572;10.174;2023-08-06T14:41:59;5.63;;;3.97;;
3297;SDS011;1661;53.572;10.174;2023-08-06T14:44:26;6.53;;;3.63;;
3297;SDS011;1661;53.572;10.174;2023-08-06T14:46:52;4.83;;;4.20;;
3297;SDS011;1661;53.572;10.174;2023-08-06T14:49:19;5.03;;;3.53;;
3297;SDS011;1661;53.572;10.174;2023-08-06T14:51:46;4.10;;;3.30;;
3297;SDS011;1661;53.572;10.174;2023-08-06T14:54:13;3.80;;;3.60;;
3297;SDS011;1661;53.572;10.174;2023-08-06T14:56:40;3.67;;;3.27;;
3297;SDS011;1661;53.572;10.174;2023-08-06T14:59:11;3.33;;;3.03;;
3297;SDS011;1661;53.572;10.174;2023-08-06T15:01:37;3.20;;;3.00;;
3297;SDS011;1661;53.572;10.174;2023-08-06T15:04:05;7.20;;;3.10;;
3297;SDS011;1661;53.572;10.174;2023-08-06T15:06:32;4.40;;;3.37;;